This is the latest recevied weather packets stored in our database for station/object KA9CBS. If no packets are shown the sender has not sent any weather packets the latest 10 day(s).
| Time | Temp. | Humidity | Pressure | Rain* | Wind** | Luminosity | Snow |
|---|---|---|---|---|---|---|---|
| 1787604127 | 28.33° C | 52% | 1019.1 hPa | 0 mm | - | 657 W/m² | - |
| 1787603822 | 27.78° C | 57% | 1019.1 hPa | 0 mm | - | 718 W/m² | - |
| 1787603517 | 27.22° C | 54% | 1019.3 hPa | 0 mm | - | 686 W/m² | - |
| 1787603213 | 27.22° C | 56% | 1019 hPa | 0 mm | - | 291 W/m² | - |
| 1787602909 | 28.33° C | 51% | 1019.2 hPa | 0 mm | - | 335 W/m² | - |
| 1787602604 | 29.44° C | 51% | 1019.1 hPa | 0 mm | - | 682 W/m² | - |
| 1787602299 | 28.33° C | 52% | 1019.4 hPa | 0 mm | - | 659 W/m² | - |
| 1787601998 | 28.89° C | 52% | 1019.1 hPa | 0 mm | - | 639 W/m² | - |
| 1787601692 | 27.22° C | 54% | 1019.4 hPa | 0 mm | - | 660 W/m² | - |
| 1787601388 | 27.22° C | 54% | 1019.3 hPa | 0 mm | - | 672 W/m² | - |
| 1787601086 | 26.67° C | 57% | 1019.3 hPa | 0 mm | - | 657 W/m² | - |
| 1787600775 | 27.22° C | 54% | 1019.2 hPa | 0 mm | - | 643 W/m² | - |
| 1787600471 | 27.78° C | 53% | 1019.4 hPa | 0 mm | - | 649 W/m² | - |
| 1787600167 | 27.22° C | 55% | 1019.5 hPa | 0 mm | - | 649 W/m² | - |
| 1787599864 | 27.22° C | 54% | 1019.5 hPa | 0 mm | - | 633 W/m² | - |
| 1787599560 | 27.22° C | 56% | 1019.8 hPa | 0 mm | - | 679 W/m² | - |
| 1787599256 | 27.78° C | 54% | 1019.8 hPa | 0 mm | - | 625 W/m² | - |
| 1787598951 | 27.78° C | 53% | 1019.9 hPa | 0 mm | - | 660 W/m² | - |
| 1787598646 | 27.78° C | 54% | 1019.9 hPa | 0 mm | - | 672 W/m² | - |
| 1787598346 | 27.22° C | 56% | 1020 hPa | 0 mm | - | 707 W/m² | - |
| 1787598043 | 27.78° C | 57% | 1020 hPa | 0 mm | - | 683 W/m² | - |
| 1787597742 | 27.78° C | 54% | 1020.3 hPa | 0 mm | - | 665 W/m² | - |
| 1787597442 | 27.22° C | 56% | 1020.2 hPa | 0 mm | - | 680 W/m² | - |
| 1787597136 | 26.67° C | 58% | 1020.1 hPa | 0 mm | - | 715 W/m² | - |
| 1787596833 | 26.67° C | 58% | 1020.1 hPa | 0 mm | - | 721 W/m² | - |
* Rain latest hour (hover to see other rain measurements)
** Current wind speed in m/s (hover to see current wind gust speed)